createdAt,value
2022-10-01T00:00:29.332Z,98330.03
2022-10-01T00:02:56.042Z,98324.66
2022-10-01T00:05:22.696Z,98315.47
2022-10-01T00:07:49.369Z,98326.59
2022-10-01T00:10:16.393Z,98327.63
2022-10-01T00:12:48.484Z,98323.84
2022-10-01T00:15:16.876Z,98331.59
2022-10-01T00:17:43.650Z,98328.38
2022-10-01T00:20:14.705Z,98328.78
2022-10-01T00:22:41.676Z,98339.34
2022-10-01T00:25:08.447Z,98339.16
2022-10-01T00:27:35.807Z,98337.00
2022-10-01T00:30:07.076Z,98335.00
2022-10-01T00:32:33.663Z,98330.63
2022-10-01T00:35:00.816Z,98332.31
2022-10-01T00:37:27.395Z,98328.75
2022-10-01T00:39:54.081Z,98326.38
2022-10-01T00:42:30.487Z,98330.56
2022-10-01T00:44:58.932Z,98331.81
2022-10-01T00:47:55.629Z,98327.81
2022-10-01T00:50:32.971Z,98333.63
2022-10-01T00:53:06.977Z,98332.03
2022-10-01T00:55:37.558Z,98324.69
2022-10-01T00:58:05.221Z,98326.69
2022-10-01T01:00:32.328Z,98330.31
2022-10-01T01:02:58.947Z,98327.28
2022-10-01T01:05:25.572Z,98323.91
2022-10-01T01:07:53.643Z,98318.94
2022-10-01T01:10:29.874Z,98311.97
2022-10-01T01:13:37.308Z,98311.19
2022-10-01T01:16:11.600Z,98305.59
2022-10-01T01:18:54.486Z,98304.41
2022-10-01T01:21:34.892Z,98307.22
2022-10-01T01:24:22.946Z,98306.41
2022-10-01T01:26:55.397Z,98297.66
2022-10-01T01:29:37.223Z,98314.41
2022-10-01T01:32:14.790Z,98312.59
2022-10-01T01:34:44.739Z,98313.00
2022-10-01T01:37:15.685Z,98301.44
2022-10-01T01:39:46.212Z,98298.41
2022-10-01T01:42:41.481Z,98296.63
2022-10-01T01:45:12.866Z,98296.00
2022-10-01T01:47:42.062Z,98300.97
2022-10-01T01:50:13.830Z,98296.75
2022-10-01T01:52:41.243Z,98290.34
2022-10-01T01:55:11.132Z,98292.34
2022-10-01T01:57:43.816Z,98288.31
2022-10-01T02:00:12.503Z,98299.06
2022-10-01T02:02:43.898Z,98284.53
2022-10-01T02:05:16.082Z,98282.94
2022-10-01T02:07:49.495Z,98271.59
2022-10-01T02:10:48.437Z,98267.22
2022-10-01T02:13:33.505Z,98274.16
2022-10-01T02:16:40.930Z,98258.44
2022-10-01T02:19:16.532Z,98260.00
2022-10-01T02:21:57.945Z,98256.63
2022-10-01T02:24:40.602Z,98253.84
2022-10-01T02:27:27.583Z,98259.00
2022-10-01T02:29:57.777Z,98257.19
2022-10-01T02:32:25.540Z,98263.56
2022-10-01T02:34:54.020Z,98257.59
2022-10-01T02:37:24.703Z,98261.16
2022-10-01T02:39:57.472Z,98254.78
2022-10-01T02:42:27.682Z,98261.75
2022-10-01T02:44:56.809Z,98258.94
2022-10-01T02:47:34.075Z,98253.75
2022-10-01T02:50:06.201Z,98253.38
2022-10-01T02:52:40.724Z,98261.13
2022-10-01T02:55:12.292Z,98259.13
2022-10-01T02:57:39.073Z,98261.53
2022-10-01T03:00:09.369Z,98250.00
2022-10-01T03:02:36.243Z,98252.34
2022-10-01T03:05:02.935Z,98240.22
2022-10-01T03:07:31.819Z,98238.03
2022-10-01T03:09:58.405Z,98237.22
2022-10-01T03:12:25.202Z,98247.59
2022-10-01T03:14:54.215Z,98238.25
2022-10-01T03:17:21.193Z,98245.38
2022-10-01T03:19:47.798Z,98243.22
2022-10-01T03:22:22.722Z,98236.84
2022-10-01T03:24:53.457Z,98246.19
2022-10-01T03:27:21.538Z,98235.44
2022-10-01T03:29:48.738Z,98237.84
2022-10-01T03:32:15.789Z,98234.66
2022-10-01T03:34:42.452Z,98232.13
2022-10-01T03:37:09.505Z,98234.28
2022-10-01T03:39:36.127Z,98230.31
2022-10-01T03:42:04.358Z,98231.91
2022-10-01T03:44:30.940Z,98236.69
2022-10-01T03:46:57.828Z,98218.97
2022-10-01T03:49:24.425Z,98221.78
2022-10-01T03:51:51.041Z,98227.94
2022-10-01T03:54:18.047Z,98223.38
2022-10-01T03:56:44.539Z,98214.41
2022-10-01T03:59:11.326Z,98219.59
2022-10-01T04:01:39.354Z,98201.69
2022-10-01T04:04:06.790Z,98202.31
2022-10-01T04:06:33.453Z,98201.28
2022-10-01T04:08:59.961Z,98205.47
2022-10-01T04:11:26.467Z,98205.25
2022-10-01T04:13:53.069Z,98206.66
2022-10-01T04:16:19.607Z,98203.50
2022-10-01T04:18:46.095Z,98202.47
2022-10-01T04:21:12.863Z,98207.09
2022-10-01T04:23:39.343Z,98205.28
2022-10-01T04:26:05.976Z,98205.25
2022-10-01T04:28:32.491Z,98202.69
2022-10-01T04:31:17.725Z,98209.88
2022-10-01T04:33:44.927Z,98206.09
2022-10-01T04:36:11.776Z,98202.91
2022-10-01T04:38:38.299Z,98206.09
2022-10-01T04:41:04.809Z,98198.53
2022-10-01T04:43:31.274Z,98193.78
2022-10-01T04:45:57.762Z,98187.78
2022-10-01T04:48:24.248Z,98187.22
2022-10-01T04:50:50.783Z,98195.19
2022-10-01T04:53:17.285Z,98199.97
2022-10-01T04:55:43.830Z,98203.13
2022-10-01T04:58:10.288Z,98201.56
2022-10-01T05:00:36.982Z,98199.97
2022-10-01T05:03:03.558Z,98207.34
2022-10-01T05:05:33.002Z,98206.53
2022-10-01T05:07:59.523Z,98206.53
2022-10-01T05:10:26.246Z,98194.56
2022-10-01T05:12:52.772Z,98191.78
2022-10-01T05:15:19.761Z,98196.38
2022-10-01T05:17:48.287Z,98186.81
2022-10-01T05:20:20.297Z,98192.00
2022-10-01T05:22:48.983Z,98199.97
2022-10-01T05:25:16.133Z,98197.78
2022-10-01T05:27:42.784Z,98206.50
2022-10-01T05:30:11.625Z,98203.94
2022-10-01T05:32:38.587Z,98208.53
2022-10-01T05:35:07.111Z,98209.91
2022-10-01T05:37:34.196Z,98208.53
2022-10-01T05:40:00.972Z,98214.72
2022-10-01T05:42:27.721Z,98208.91
2022-10-01T05:44:56.848Z,98201.75
2022-10-01T05:47:23.491Z,98205.53
2022-10-01T05:49:50.084Z,98191.03
2022-10-01T05:52:16.998Z,98194.41
2022-10-01T05:54:43.964Z,98191.41
2022-10-01T05:57:11.131Z,98198.22
2022-10-01T05:59:37.881Z,98198.59
2022-10-01T06:02:09.129Z,98192.44
2022-10-01T06:04:40.922Z,98193.22
2022-10-01T06:07:07.850Z,98192.03
2022-10-01T06:09:34.542Z,98186.44
2022-10-01T06:12:01.245Z,98187.25
2022-10-01T06:14:27.864Z,98171.09
2022-10-01T06:16:55.020Z,98173.91
2022-10-01T06:19:21.659Z,98167.69
2022-10-01T06:21:48.452Z,98167.69
2022-10-01T06:24:15.191Z,98170.28
2022-10-01T06:26:41.980Z,98162.13
2022-10-01T06:29:08.677Z,98159.13
2022-10-01T06:31:38.646Z,98153.31
2022-10-01T06:34:05.733Z,98158.50
2022-10-01T06:36:34.165Z,98154.47
2022-10-01T06:39:05.954Z,98159.66
2022-10-01T06:41:34.670Z,98161.81
2022-10-01T06:44:02.029Z,98164.41
2022-10-01T06:46:28.916Z,98153.56
2022-10-01T06:48:57.590Z,98153.56
2022-10-01T06:51:44.027Z,98156.34
2022-10-01T06:54:10.829Z,98156.88
2022-10-01T06:56:37.593Z,98161.84
2022-10-01T06:59:04.493Z,98165.22
2022-10-01T07:01:32.964Z,98155.41
2022-10-01T07:03:59.787Z,98154.72
2022-10-01T07:06:26.485Z,98150.34
2022-10-01T07:08:53.283Z,98153.72
2022-10-01T07:11:20.492Z,98157.13
2022-10-01T07:13:54.334Z,98142.13
2022-10-01T07:16:21.422Z,98139.28
2022-10-01T07:18:50.363Z,98142.47
2022-10-01T07:21:17.056Z,98137.44
2022-10-01T07:23:43.693Z,98138.97
2022-10-01T07:26:11.734Z,98136.50
2022-10-01T07:28:38.630Z,98140.06
2022-10-01T07:31:12.225Z,98144.47
2022-10-01T07:33:39.894Z,98141.88
2022-10-01T07:36:10.910Z,98150.84
2022-10-01T07:38:37.515Z,98154.66
2022-10-01T07:41:04.731Z,98146.09
2022-10-01T07:43:33.072Z,98159.22
2022-10-01T07:46:00.274Z,98159.63
2022-10-01T07:48:27.816Z,98165.41
2022-10-01T07:50:54.341Z,98154.66
2022-10-01T07:53:20.828Z,98156.47
2022-10-01T07:55:47.288Z,98147.66
2022-10-01T07:58:13.981Z,98144.69
2022-10-01T08:00:40.587Z,98144.31
2022-10-01T08:03:07.305Z,98151.16
2022-10-01T08:05:35.966Z,98154.41
2022-10-01T08:08:05.115Z,98154.22
2022-10-01T08:10:34.867Z,98154.81
2022-10-01T08:13:11.128Z,98148.59
2022-10-01T08:15:37.674Z,98157.00
2022-10-01T08:18:05.159Z,98152.00
2022-10-01T08:20:34.984Z,98151.78
2022-10-01T08:23:06.413Z,98146.38
2022-10-01T08:25:33.507Z,98152.16
2022-10-01T08:28:00.560Z,98144.16
2022-10-01T08:30:30.846Z,98144.53
2022-10-01T08:32:59.547Z,98135.13
2022-10-01T08:35:27.790Z,98134.16
2022-10-01T08:37:57.351Z,98135.13
2022-10-01T08:40:27.653Z,98133.97
2022-10-01T08:42:57.286Z,98142.94
2022-10-01T08:45:29.008Z,98144.47
2022-10-01T08:48:01.566Z,98137.28
2022-10-01T08:50:53.056Z,98128.47
2022-10-01T08:53:51.346Z,98116.28
2022-10-01T08:56:40.747Z,98122.69
2022-10-01T08:59:17.728Z,98122.13
2022-10-01T09:01:44.581Z,98110.50
2022-10-01T09:04:11.302Z,98106.53
2022-10-01T09:06:38.522Z,98097.44
2022-10-01T09:09:20.138Z,98099.50
2022-10-01T09:12:03.372Z,98089.88
2022-10-01T09:14:48.472Z,98077.69
2022-10-01T09:17:34.476Z,98089.44
2022-10-01T09:20:27.390Z,98091.81
2022-10-01T09:23:02.908Z,98091.81
2022-10-01T09:25:29.923Z,98077.06
2022-10-01T09:28:16.121Z,98072.41
2022-10-01T09:30:48.032Z,98070.19
2022-10-01T09:33:20.192Z,98068.16
2022-10-01T09:35:49.463Z,98066.50
2022-10-01T09:38:20.069Z,98063.50
2022-10-01T09:40:54.762Z,98063.25
2022-10-01T09:43:23.450Z,98049.41
2022-10-01T09:45:53.407Z,98046.16
2022-10-01T09:48:41.495Z,98049.00
2022-10-01T09:51:16.408Z,98053.16
2022-10-01T09:53:57.784Z,98043.72
2022-10-01T09:56:33.902Z,98041.47
2022-10-01T09:59:07.660Z,98051.06
2022-10-01T10:01:46.061Z,98047.81
2022-10-01T10:04:20.173Z,98050.00
2022-10-01T10:06:47.869Z,98037.78
2022-10-01T10:09:22.418Z,98048.97
2022-10-01T10:11:49.153Z,98040.72
2022-10-01T10:14:29.391Z,98037.72
2022-10-01T10:16:57.253Z,98038.50
2022-10-01T10:19:27.859Z,98039.50
2022-10-01T10:22:10.043Z,98029.91
2022-10-01T10:24:37.473Z,98033.66
2022-10-01T10:27:22.314Z,98045.63
2022-10-01T10:29:48.951Z,98038.72
2022-10-01T10:32:26.844Z,98041.16
2022-10-01T10:35:02.739Z,98036.59
2022-10-01T10:37:36.517Z,98046.63
2022-10-01T10:40:08.290Z,98037.94
2022-10-01T10:42:41.185Z,98044.06
2022-10-01T10:45:17.556Z,98039.22
2022-10-01T10:47:46.238Z,98028.38
2022-10-01T10:50:36.085Z,98031.09
2022-10-01T10:53:44.093Z,98041.38
2022-10-01T10:56:22.545Z,98029.38
2022-10-01T10:58:52.756Z,98027.94
2022-10-01T11:01:28.630Z,98022.28
2022-10-01T11:04:00.619Z,98018.44
2022-10-01T11:06:28.051Z,98020.25
2022-10-01T11:09:01.658Z,98010.97
2022-10-01T11:11:34.312Z,98008.16
2022-10-01T11:14:08.407Z,98008.38
2022-10-01T11:17:21.994Z,98013.13
2022-10-01T11:20:00.688Z,98024.13
2022-10-01T11:22:52.602Z,98020.03
2022-10-01T11:25:27.085Z,98016.56
2022-10-01T11:28:10.687Z,98013.63
2022-10-01T11:31:13.308Z,98023.88
2022-10-01T11:34:13.847Z,98026.59
2022-10-01T11:36:55.238Z,98025.03
2022-10-01T11:39:26.009Z,98028.66
2022-10-01T11:42:04.290Z,98013.22
2022-10-01T11:44:34.723Z,98026.38
2022-10-01T11:47:24.318Z,98020.38
2022-10-01T11:49:57.062Z,98020.03
2022-10-01T11:52:33.990Z,98018.88
2022-10-01T11:55:24.452Z,98021.50
2022-10-01T11:58:43.761Z,98007.91
2022-10-01T12:01:35.748Z,98009.59
2022-10-01T12:04:10.397Z,98006.44
2022-10-01T12:06:49.524Z,98000.53
2022-10-01T12:09:41.447Z,98018.00
2022-10-01T12:12:15.647Z,98003.16
2022-10-01T12:14:52.564Z,98013.91
2022-10-01T12:17:22.541Z,98000.19
2022-10-01T12:19:56.728Z,98008.00
2022-10-01T12:22:32.809Z,98013.09
2022-10-01T12:24:59.861Z,98001.34
2022-10-01T12:27:42.098Z,98009.25
2022-10-01T12:30:15.391Z,98003.59
2022-10-01T12:32:55.972Z,98009.72
2022-10-01T12:35:38.819Z,98006.66
2022-10-01T12:38:16.965Z,98007.78
2022-10-01T12:41:06.117Z,98007.78
2022-10-01T12:44:03.595Z,98008.13
2022-10-01T12:46:47.468Z,98013.09
2022-10-01T12:49:22.414Z,98020.81
2022-10-01T12:52:14.962Z,98019.31
2022-10-01T12:55:14.853Z,98020.09
2022-10-01T12:58:03.222Z,98017.38
2022-10-01T13:00:40.787Z,98012.69
2022-10-01T13:04:08.825Z,98017.78
2022-10-01T13:06:51.899Z,98016.66
2022-10-01T13:09:45.362Z,98017.75
2022-10-01T13:12:56.675Z,98027.81
2022-10-01T13:15:32.710Z,98028.03
2022-10-01T13:18:08.515Z,98023.59
2022-10-01T13:20:51.795Z,98031.41
2022-10-01T13:23:33.468Z,98033.25
2022-10-01T13:26:27.927Z,98030.94
2022-10-01T13:29:03.804Z,98033.66
2022-10-01T13:31:39.954Z,98038.19
2022-10-01T13:34:42.336Z,98031.94
2022-10-01T13:37:20.112Z,98037.06
2022-10-01T13:39:47.569Z,98044.09
2022-10-01T13:42:24.019Z,98036.38
2022-10-01T13:44:59.907Z,98043.81
2022-10-01T13:47:27.944Z,98044.38
2022-10-01T13:49:58.059Z,98041.22
2022-10-01T13:52:25.398Z,98039.28
2022-10-01T13:54:57.246Z,98050.88
2022-10-01T13:57:33.679Z,98043.56
2022-10-01T14:00:23.071Z,98054.09
2022-10-01T14:03:05.983Z,98051.50
2022-10-01T14:05:44.786Z,98057.25
2022-10-01T14:08:25.792Z,98058.84
2022-10-01T14:11:23.086Z,98062.06
2022-10-01T14:14:12.697Z,98062.97
2022-10-01T14:16:45.796Z,98065.94
2022-10-01T14:19:21.569Z,98071.38
2022-10-01T14:21:53.767Z,98069.66
2022-10-01T14:24:32.854Z,98069.75
2022-10-01T14:27:08.717Z,98073.28
2022-10-01T14:29:53.402Z,98067.28
2022-10-01T14:32:50.950Z,98069.41
2022-10-01T14:35:23.640Z,98071.97
2022-10-01T14:37:59.986Z,98071.16
2022-10-01T14:40:36.764Z,98076.03
2022-10-01T14:43:19.603Z,98075.38
2022-10-01T14:45:50.843Z,98080.91
2022-10-01T14:48:17.411Z,98079.78
2022-10-01T14:50:49.307Z,98080.81
2022-10-01T14:53:18.992Z,98087.72
2022-10-01T14:55:48.544Z,98079.31
2022-10-01T14:58:20.425Z,98078.63
2022-10-01T15:00:52.693Z,98088.03
2022-10-01T15:03:22.540Z,98087.94
2022-10-01T15:05:50.450Z,98089.50
2022-10-01T15:08:38.108Z,98085.66
2022-10-01T15:11:43.419Z,98079.94
2022-10-01T15:14:20.280Z,98077.91
2022-10-01T15:16:47.724Z,98087.78
2022-10-01T15:19:20.619Z,98089.59
2022-10-01T15:21:54.734Z,98103.78
2022-10-01T15:24:41.449Z,98107.41
2022-10-01T15:27:12.728Z,98092.78
2022-10-01T15:29:45.422Z,98091.66
2022-10-01T15:32:18.846Z,98096.34
2022-10-01T15:34:53.517Z,98097.13
2022-10-01T15:37:40.406Z,98098.31
2022-10-01T15:40:20.945Z,98092.41
2022-10-01T15:43:11.765Z,98098.41
2022-10-01T15:45:38.952Z,98102.59
2022-10-01T15:48:08.637Z,98090.28
2022-10-01T15:50:38.544Z,98095.25
2022-10-01T15:53:17.979Z,98097.31
2022-10-01T15:55:56.688Z,98099.19
2022-10-01T15:58:27.143Z,98101.03
2022-10-01T16:01:04.850Z,98095.91
2022-10-01T16:03:46.122Z,98100.19
2022-10-01T16:06:27.237Z,98107.53
2022-10-01T16:09:11.955Z,98113.88
2022-10-01T16:11:59.532Z,98104.94
2022-10-01T16:14:59.040Z,98106.19
2022-10-01T16:17:48.903Z,98115.28
2022-10-01T16:20:15.377Z,98114.97
2022-10-01T16:22:46.360Z,98116.00
2022-10-01T16:25:17.120Z,98115.53
2022-10-01T16:27:52.979Z,98124.72
2022-10-01T16:30:27.599Z,98119.34
2022-10-01T16:32:58.892Z,98122.50
2022-10-01T16:35:35.867Z,98128.06
2022-10-01T16:38:08.533Z,98127.75
2022-10-01T16:40:41.959Z,98125.78
2022-10-01T16:43:18.894Z,98143.59
2022-10-01T16:45:45.959Z,98132.59
2022-10-01T16:48:19.693Z,98141.69
2022-10-01T16:50:52.060Z,98141.06
2022-10-01T16:53:19.110Z,98134.81
2022-10-01T16:55:47.299Z,98146.03
2022-10-01T16:58:14.646Z,98142.34
2022-10-01T17:00:45.003Z,98148.97
2022-10-01T17:03:17.720Z,98152.06
2022-10-01T17:05:48.019Z,98159.38
2022-10-01T17:08:15.874Z,98159.38
2022-10-01T17:10:47.679Z,98164.13
2022-10-01T17:13:15.443Z,98159.38
2022-10-01T17:15:43.202Z,98161.97
2022-10-01T17:18:10.479Z,98162.75
2022-10-01T17:20:40.368Z,98164.13
2022-10-01T17:23:12.682Z,98161.25
2022-10-01T17:25:42.452Z,98178.84
2022-10-01T17:28:16.399Z,98171.22
2022-10-01T17:30:46.568Z,98183.28
2022-10-01T17:33:15.365Z,98198.59
2022-10-01T17:35:44.538Z,98188.63
2022-10-01T17:38:13.213Z,98183.88
2022-10-01T17:40:44.391Z,98186.69
2022-10-01T17:43:12.672Z,98198.50
2022-10-01T17:45:39.935Z,98195.72
2022-10-01T17:48:06.793Z,98207.22
2022-10-01T17:50:33.547Z,98207.69
2022-10-01T17:53:03.662Z,98221.22
2022-10-01T17:55:31.301Z,98220.44
2022-10-01T17:58:02.692Z,98218.13
2022-10-01T18:00:29.621Z,98218.34
2022-10-01T18:02:56.690Z,98223.28
2022-10-01T18:05:23.792Z,98234.66
2022-10-01T18:07:53.852Z,98240.56
2022-10-01T18:10:28.315Z,98251.81
2022-10-01T18:12:55.167Z,98255.09
2022-10-01T18:15:24.233Z,98272.03
2022-10-01T18:18:48.534Z,98268.28
2022-10-01T18:20:43.447Z,98268.63
2022-10-01T18:23:10.019Z,98277.72
2022-10-01T18:25:38.610Z,98284.31
2022-10-01T18:28:05.591Z,98276.03
2022-10-01T18:30:34.183Z,98280.22
2022-10-01T18:33:03.321Z,98280.34
2022-10-01T18:35:34.842Z,98284.78
2022-10-01T18:38:28.337Z,98272.66
2022-10-01T18:40:59.990Z,98282.75
2022-10-01T18:43:26.826Z,98279.56
2022-10-01T18:46:19.299Z,98281.94
2022-10-01T18:49:31.548Z,98288.75
2022-10-01T18:52:36.284Z,98283.16
2022-10-01T18:55:21.482Z,98286.91
2022-10-01T18:57:51.390Z,98291.69
2022-10-01T19:00:25.423Z,98297.09
2022-10-01T19:03:10.266Z,98298.91
2022-10-01T19:05:55.526Z,98304.94
2022-10-01T19:08:29.187Z,98295.41
2022-10-01T19:11:04.274Z,98312.69
2022-10-01T19:14:03.275Z,98315.50
2022-10-01T19:16:47.834Z,98320.16
2022-10-01T19:19:28.818Z,98342.44
2022-10-01T19:22:16.060Z,98346.31
2022-10-01T19:25:19.638Z,98344.50
2022-10-01T19:28:14.288Z,98351.63
2022-10-01T19:30:52.741Z,98361.75
2022-10-01T19:33:21.835Z,98367.91
2022-10-01T19:35:57.278Z,98366.66
2022-10-01T19:38:38.032Z,98377.13
2022-10-01T19:41:16.089Z,98391.63
2022-10-01T19:43:55.539Z,98402.78
2022-10-01T19:46:29.230Z,98399.03
2022-10-01T19:49:25.966Z,98398.25
2022-10-01T19:52:01.503Z,98397.69
2022-10-01T19:54:34.093Z,98406.00
2022-10-01T19:57:16.249Z,98411.31
2022-10-01T19:59:42.882Z,98393.81
2022-10-01T20:02:32.131Z,98407.00
2022-10-01T20:05:04.736Z,98405.06
2022-10-01T20:07:55.564Z,98415.63
2022-10-01T20:10:36.107Z,98420.19
2022-10-01T20:13:25.772Z,98430.38
2022-10-01T20:16:13.325Z,98438.13
2022-10-01T20:19:13.864Z,98433.47
2022-10-01T20:22:02.300Z,98449.72
2022-10-01T20:24:44.109Z,98445.06
2022-10-01T20:27:20.099Z,98447.22
2022-10-01T20:30:05.745Z,98449.03
2022-10-01T20:32:50.948Z,98461.53
2022-10-01T20:35:24.519Z,98458.91
2022-10-01T20:38:00.282Z,98473.22
2022-10-01T20:40:32.986Z,98479.81
2022-10-01T20:43:06.233Z,98473.09
2022-10-01T20:45:38.739Z,98492.41
2022-10-01T20:48:29.539Z,98488.00
2022-10-01T20:51:03.289Z,98500.97
2022-10-01T20:53:30.402Z,98501.03
2022-10-01T20:56:09.842Z,98503.66
2022-10-01T20:59:02.053Z,98514.09
2022-10-01T21:01:33.219Z,98516.63
2022-10-01T21:04:29.215Z,98518.78
2022-10-01T21:07:01.942Z,98527.66
2022-10-01T21:09:40.719Z,98545.38
2022-10-01T21:12:15.263Z,98537.53
2022-10-01T21:14:52.849Z,98556.50
2022-10-01T21:17:41.724Z,98549.34
2022-10-01T21:20:26.866Z,98548.75
2022-10-01T21:23:01.517Z,98552.22
2022-10-01T21:25:49.818Z,98558.47
2022-10-01T21:28:52.233Z,98556.88
2022-10-01T21:31:32.418Z,98552.06
2022-10-01T21:34:03.126Z,98556.38
2022-10-01T21:36:51.604Z,98559.50
2022-10-01T21:39:33.132Z,98565.63
2022-10-01T21:42:02.887Z,98555.91
2022-10-01T21:45:08.986Z,98577.03
2022-10-01T21:48:00.850Z,98581.34
2022-10-01T21:50:39.473Z,98580.31
2022-10-01T21:53:15.003Z,98590.63
2022-10-01T21:56:00.238Z,98602.50
2022-10-01T21:58:48.831Z,98597.28
2022-10-01T22:01:25.226Z,98605.34
2022-10-01T22:04:13.117Z,98606.44
2022-10-01T22:06:52.626Z,98608.13
2022-10-01T22:09:27.588Z,98599.47
2022-10-01T22:11:58.762Z,98602.88
2022-10-01T22:14:27.171Z,98615.94
2022-10-01T22:17:00.398Z,98619.28
2022-10-01T22:19:37.789Z,98617.47
2022-10-01T22:22:30.200Z,98631.22
2022-10-01T22:25:00.842Z,98642.47
2022-10-01T22:27:33.299Z,98644.78
2022-10-01T22:29:59.696Z,98644.69
2022-10-01T22:32:31.336Z,98635.25
2022-10-01T22:35:03.181Z,98643.09
2022-10-01T22:37:55.184Z,98649.22
2022-10-01T22:40:27.326Z,98647.25
2022-10-01T22:43:05.440Z,98648.28
2022-10-01T22:45:41.050Z,98658.72
2022-10-01T22:48:29.245Z,98653.06
2022-10-01T22:51:01.874Z,98656.91
2022-10-01T22:53:50.791Z,98661.19
2022-10-01T22:56:29.884Z,98656.81
2022-10-01T22:59:11.135Z,98662.56
2022-10-01T23:02:02.279Z,98669.50
2022-10-01T23:04:41.142Z,98679.59
2022-10-01T23:07:20.603Z,98676.03
2022-10-01T23:10:15.339Z,98680.16
2022-10-01T23:13:00.475Z,98675.59
2022-10-01T23:15:52.998Z,98680.09
2022-10-01T23:18:38.062Z,98677.09
2022-10-01T23:21:55.340Z,98683.69
2022-10-01T23:24:49.501Z,98687.31
2022-10-01T23:27:27.207Z,98691.94
2022-10-01T23:30:05.276Z,98703.84
2022-10-01T23:32:47.331Z,98710.91
2022-10-01T23:35:19.617Z,98703.72
2022-10-01T23:38:01.534Z,98705.19
2022-10-01T23:40:33.055Z,98708.84
2022-10-01T23:43:31.035Z,98712.66
2022-10-01T23:46:27.674Z,98714.06
2022-10-01T23:49:14.644Z,98716.47
2022-10-01T23:52:19.297Z,98718.25
2022-10-01T23:54:55.262Z,98722.69
2022-10-01T23:57:39.299Z,98727.06
